sensor_id;sensor_type;location;lat;lon;timestamp;temperature;humidity
21559;DHT22;10940;48.890;8.240;2023-05-19T00:01:39;10.90;99.90
21559;DHT22;10940;48.890;8.240;2023-05-19T00:04:08;10.80;99.90
21559;DHT22;10940;48.890;8.240;2023-05-19T00:06:34;10.80;99.90
21559;DHT22;10940;48.890;8.240;2023-05-19T00:09:03;10.80;99.90
21559;DHT22;10940;48.890;8.240;2023-05-19T00:11:29;10.80;99.90
21559;DHT22;10940;48.890;8.240;2023-05-19T00:13:58;10.80;99.90
21559;DHT22;10940;48.890;8.240;2023-05-19T00:16:25;10.80;99.90
21559;DHT22;10940;48.890;8.240;2023-05-19T00:18:51;10.80;99.90
21559;DHT22;10940;48.890;8.240;2023-05-19T00:21:19;10.70;99.90
21559;DHT22;10940;48.890;8.240;2023-05-19T00:23:45;10.70;99.90
21559;DHT22;10940;48.890;8.240;2023-05-19T00:26:11;10.70;99.90
21559;DHT22;10940;48.890;8.240;2023-05-19T00:28:36;10.70;99.90
21559;DHT22;10940;48.890;8.240;2023-05-19T00:31:03;10.70;99.90
21559;DHT22;10940;48.890;8.240;2023-05-19T00:33:29;10.80;99.90
21559;DHT22;10940;48.890;8.240;2023-05-19T00:35:55;10.70;99.90
21559;DHT22;10940;48.890;8.240;2023-05-19T00:38:20;10.70;99.90
21559;DHT22;10940;48.890;8.240;2023-05-19T00:40:46;10.70;99.90
21559;DHT22;10940;48.890;8.240;2023-05-19T00:43:12;10.60;99.90
21559;DHT22;10940;48.890;8.240;2023-05-19T00:45:37;10.60;99.90
21559;DHT22;10940;48.890;8.240;2023-05-19T00:48:03;10.60;99.90
21559;DHT22;10940;48.890;8.240;2023-05-19T00:50:29;10.60;99.90
21559;DHT22;10940;48.890;8.240;2023-05-19T00:52:55;10.60;99.90
21559;DHT22;10940;48.890;8.240;2023-05-19T00:55:22;10.50;99.90
21559;DHT22;10940;48.890;8.240;2023-05-19T00:57:51;10.50;99.90
21559;DHT22;10940;48.890;8.240;2023-05-19T01:00:17;10.50;99.90
21559;DHT22;10940;48.890;8.240;2023-05-19T01:02:43;10.50;99.90
21559;DHT22;10940;48.890;8.240;2023-05-19T01:05:09;10.40;99.90
21559;DHT22;10940;48.890;8.240;2023-05-19T01:07:34;10.40;99.90
21559;DHT22;10940;48.890;8.240;2023-05-19T01:10:01;10.40;99.90
21559;DHT22;10940;48.890;8.240;2023-05-19T01:12:27;10.40;99.90
21559;DHT22;10940;48.890;8.240;2023-05-19T01:14:53;10.40;99.90
21559;DHT22;10940;48.890;8.240;2023-05-19T01:17:29;10.40;99.90
21559;DHT22;10940;48.890;8.240;2023-05-19T01:31:30;10.30;99.90
21559;DHT22;10940;48.890;8.240;2023-05-19T01:33:58;10.30;99.90
21559;DHT22;10940;48.890;8.240;2023-05-19T01:36:25;10.30;99.90
21559;DHT22;10940;48.890;8.240;2023-05-19T01:38:54;10.30;99.90
21559;DHT22;10940;48.890;8.240;2023-05-19T01:41:21;10.30;99.90
21559;DHT22;10940;48.890;8.240;2023-05-19T01:43:48;10.30;99.90
21559;DHT22;10940;48.890;8.240;2023-05-19T01:46:14;10.30;99.90
21559;DHT22;10940;48.890;8.240;2023-05-19T01:48:42;10.30;99.90
21559;DHT22;10940;48.890;8.240;2023-05-19T01:51:08;10.30;99.90
21559;DHT22;10940;48.890;8.240;2023-05-19T01:53:34;10.30;99.90
21559;DHT22;10940;48.890;8.240;2023-05-19T01:56:01;10.30;99.90
21559;DHT22;10940;48.890;8.240;2023-05-19T02:01:10;10.20;99.90
21559;DHT22;10940;48.890;8.240;2023-05-19T02:06:42;10.30;99.90
21559;DHT22;10940;48.890;8.240;2023-05-19T02:09:24;10.30;99.90
21559;DHT22;10940;48.890;8.240;2023-05-19T02:11:55;10.30;99.90
21559;DHT22;10940;48.890;8.240;2023-05-19T02:14:34;10.20;99.90
21559;DHT22;10940;48.890;8.240;2023-05-19T02:17:01;10.30;99.90
21559;DHT22;10940;48.890;8.240;2023-05-19T02:19:32;10.20;99.90
21559;DHT22;10940;48.890;8.240;2023-05-19T02:21:58;10.20;99.90
21559;DHT22;10940;48.890;8.240;2023-05-19T02:24:24;10.20;99.90
21559;DHT22;10940;48.890;8.240;2023-05-19T02:26:50;10.20;99.90
21559;DHT22;10940;48.890;8.240;2023-05-19T02:29:16;10.20;99.90
21559;DHT22;10940;48.890;8.240;2023-05-19T02:31:42;10.20;99.90
21559;DHT22;10940;48.890;8.240;2023-05-19T02:34:07;10.20;99.90
21559;DHT22;10940;48.890;8.240;2023-05-19T02:36:34;10.20;99.90
21559;DHT22;10940;48.890;8.240;2023-05-19T02:39:02;10.20;99.90
21559;DHT22;10940;48.890;8.240;2023-05-19T02:41:27;10.10;99.90
21559;DHT22;10940;48.890;8.240;2023-05-19T02:43:53;10.20;99.90
21559;DHT22;10940;48.890;8.240;2023-05-19T02:46:19;10.10;99.90
21559;DHT22;10940;48.890;8.240;2023-05-19T02:48:45;10.10;99.90
21559;DHT22;10940;48.890;8.240;2023-05-19T02:51:10;10.10;99.90
21559;DHT22;10940;48.890;8.240;2023-05-19T02:53:36;10.10;99.90
21559;DHT22;10940;48.890;8.240;2023-05-19T02:56:02;10.10;99.90
21559;DHT22;10940;48.890;8.240;2023-05-19T02:58:27;10.10;99.90
21559;DHT22;10940;48.890;8.240;2023-05-19T03:00:54;10.10;99.90
21559;DHT22;10940;48.890;8.240;2023-05-19T03:03:20;10.00;99.90
21559;DHT22;10940;48.890;8.240;2023-05-19T03:05:45;10.00;99.90
21559;DHT22;10940;48.890;8.240;2023-05-19T03:08:12;10.10;99.90
21559;DHT22;10940;48.890;8.240;2023-05-19T03:10:37;10.10;99.90
21559;DHT22;10940;48.890;8.240;2023-05-19T03:13:03;10.00;99.90
21559;DHT22;10940;48.890;8.240;2023-05-19T03:15:28;10.00;99.90
21559;DHT22;10940;48.890;8.240;2023-05-19T03:17:55;10.00;99.90
21559;DHT22;10940;48.890;8.240;2023-05-19T03:20:20;10.00;99.90
21559;DHT22;10940;48.890;8.240;2023-05-19T03:22:46;9.90;99.90
21559;DHT22;10940;48.890;8.240;2023-05-19T03:25:12;9.90;99.90
21559;DHT22;10940;48.890;8.240;2023-05-19T03:27:37;9.90;99.90
21559;DHT22;10940;48.890;8.240;2023-05-19T03:30:04;10.00;99.90
21559;DHT22;10940;48.890;8.240;2023-05-19T03:32:29;9.90;99.90
21559;DHT22;10940;48.890;8.240;2023-05-19T03:34:57;9.90;99.90
21559;DHT22;10940;48.890;8.240;2023-05-19T03:37:23;9.80;99.90
21559;DHT22;10940;48.890;8.240;2023-05-19T03:39:48;9.80;99.90
21559;DHT22;10940;48.890;8.240;2023-05-19T03:42:14;9.80;99.90
21559;DHT22;10940;48.890;8.240;2023-05-19T03:44:40;9.80;99.90
21559;DHT22;10940;48.890;8.240;2023-05-19T03:47:06;9.70;99.90
21559;DHT22;10940;48.890;8.240;2023-05-19T03:49:31;9.70;99.90
21559;DHT22;10940;48.890;8.240;2023-05-19T03:51:57;9.70;99.90
21559;DHT22;10940;48.890;8.240;2023-05-19T03:54:22;9.70;99.90
21559;DHT22;10940;48.890;8.240;2023-05-19T03:56:48;9.70;99.90
21559;DHT22;10940;48.890;8.240;2023-05-19T03:59:14;9.70;99.90
21559;DHT22;10940;48.890;8.240;2023-05-19T04:01:40;9.70;99.90
21559;DHT22;10940;48.890;8.240;2023-05-19T04:04:06;9.60;99.90
21559;DHT22;10940;48.890;8.240;2023-05-19T04:06:32;9.70;99.90
21559;DHT22;10940;48.890;8.240;2023-05-19T04:08:58;9.60;99.90
21559;DHT22;10940;48.890;8.240;2023-05-19T04:11:24;9.70;99.90
21559;DHT22;10940;48.890;8.240;2023-05-19T04:13:50;9.70;99.90
21559;DHT22;10940;48.890;8.240;2023-05-19T04:16:15;9.70;99.90
21559;DHT22;10940;48.890;8.240;2023-05-19T04:18:41;9.60;99.90
21559;DHT22;10940;48.890;8.240;2023-05-19T04:21:06;9.70;99.90
21559;DHT22;10940;48.890;8.240;2023-05-19T04:23:33;9.80;99.90
21559;DHT22;10940;48.890;8.240;2023-05-19T04:25:59;9.80;99.90
21559;DHT22;10940;48.890;8.240;2023-05-19T04:28:26;9.80;99.90
21559;DHT22;10940;48.890;8.240;2023-05-19T04:30:51;9.90;99.90
21559;DHT22;10940;48.890;8.240;2023-05-19T04:33:17;9.90;99.90
21559;DHT22;10940;48.890;8.240;2023-05-19T04:35:44;9.90;99.90
21559;DHT22;10940;48.890;8.240;2023-05-19T04:38:10;9.90;99.90
21559;DHT22;10940;48.890;8.240;2023-05-19T04:40:36;10.00;99.90
21559;DHT22;10940;48.890;8.240;2023-05-19T04:43:02;10.00;99.90
21559;DHT22;10940;48.890;8.240;2023-05-19T04:45:27;10.10;99.90
21559;DHT22;10940;48.890;8.240;2023-05-19T04:47:53;10.10;99.90
21559;DHT22;10940;48.890;8.240;2023-05-19T04:50:22;10.10;99.90
21559;DHT22;10940;48.890;8.240;2023-05-19T04:52:48;10.20;99.90
21559;DHT22;10940;48.890;8.240;2023-05-19T04:55:13;10.30;99.90
21559;DHT22;10940;48.890;8.240;2023-05-19T04:57:39;10.30;99.90
21559;DHT22;10940;48.890;8.240;2023-05-19T05:00:05;10.30;99.90
21559;DHT22;10940;48.890;8.240;2023-05-19T05:02:33;10.30;99.90
21559;DHT22;10940;48.890;8.240;2023-05-19T05:04:59;10.30;99.90
21559;DHT22;10940;48.890;8.240;2023-05-19T05:07:24;10.40;99.90
21559;DHT22;10940;48.890;8.240;2023-05-19T05:09:50;10.40;99.90
21559;DHT22;10940;48.890;8.240;2023-05-19T05:12:20;10.40;99.90
21559;DHT22;10940;48.890;8.240;2023-05-19T05:14:47;10.40;99.90
21559;DHT22;10940;48.890;8.240;2023-05-19T05:17:12;10.50;99.90
21559;DHT22;10940;48.890;8.240;2023-05-19T05:19:39;10.50;99.90
21559;DHT22;10940;48.890;8.240;2023-05-19T05:22:05;10.50;99.90
21559;DHT22;10940;48.890;8.240;2023-05-19T05:24:31;10.50;99.90
21559;DHT22;10940;48.890;8.240;2023-05-19T05:26:57;10.70;99.90
21559;DHT22;10940;48.890;8.240;2023-05-19T05:29:23;10.80;99.90
21559;DHT22;10940;48.890;8.240;2023-05-19T05:31:49;10.90;99.90
21559;DHT22;10940;48.890;8.240;2023-05-19T05:34:14;11.00;99.90
21559;DHT22;10940;48.890;8.240;2023-05-19T05:36:40;11.10;99.90
21559;DHT22;10940;48.890;8.240;2023-05-19T05:39:06;11.10;99.90
21559;DHT22;10940;48.890;8.240;2023-05-19T05:41:31;11.20;99.90
21559;DHT22;10940;48.890;8.240;2023-05-19T05:44:02;11.20;99.90
21559;DHT22;10940;48.890;8.240;2023-05-19T05:46:28;11.20;99.90
21559;DHT22;10940;48.890;8.240;2023-05-19T05:48:54;11.20;99.90
21559;DHT22;10940;48.890;8.240;2023-05-19T05:51:21;11.10;99.90
21559;DHT22;10940;48.890;8.240;2023-05-19T05:53:51;11.10;99.90
21559;DHT22;10940;48.890;8.240;2023-05-19T05:56:17;11.10;99.90
21559;DHT22;10940;48.890;8.240;2023-05-19T05:58:43;11.10;99.90
21559;DHT22;10940;48.890;8.240;2023-05-19T06:01:09;11.10;99.90
21559;DHT22;10940;48.890;8.240;2023-05-19T06:03:37;11.20;99.90
21559;DHT22;10940;48.890;8.240;2023-05-19T06:06:03;11.20;99.90
21559;DHT22;10940;48.890;8.240;2023-05-19T06:08:29;11.30;99.90
21559;DHT22;10940;48.890;8.240;2023-05-19T06:10:55;11.30;99.90
21559;DHT22;10940;48.890;8.240;2023-05-19T06:13:22;11.40;99.90
21559;DHT22;10940;48.890;8.240;2023-05-19T06:15:49;11.40;99.90
21559;DHT22;10940;48.890;8.240;2023-05-19T06:18:14;11.50;99.90
21559;DHT22;10940;48.890;8.240;2023-05-19T06:20:40;11.60;99.90
21559;DHT22;10940;48.890;8.240;2023-05-19T06:23:06;11.70;99.90
21559;DHT22;10940;48.890;8.240;2023-05-19T06:25:31;11.70;99.90
21559;DHT22;10940;48.890;8.240;2023-05-19T06:27:57;11.90;99.90
21559;DHT22;10940;48.890;8.240;2023-05-19T06:30:23;11.90;99.90
21559;DHT22;10940;48.890;8.240;2023-05-19T06:32:48;12.00;99.90
21559;DHT22;10940;48.890;8.240;2023-05-19T06:35:14;12.10;99.90
21559;DHT22;10940;48.890;8.240;2023-05-19T06:37:39;12.30;99.90
21559;DHT22;10940;48.890;8.240;2023-05-19T06:40:05;12.30;99.90
21559;DHT22;10940;48.890;8.240;2023-05-19T06:42:31;12.40;99.90
21559;DHT22;10940;48.890;8.240;2023-05-19T06:44:57;12.60;99.90
21559;DHT22;10940;48.890;8.240;2023-05-19T06:47:22;12.70;99.90
21559;DHT22;10940;48.890;8.240;2023-05-19T06:49:48;12.80;99.90
21559;DHT22;10940;48.890;8.240;2023-05-19T06:52:23;12.90;99.90
21559;DHT22;10940;48.890;8.240;2023-05-19T06:54:49;13.00;99.90
21559;DHT22;10940;48.890;8.240;2023-05-19T06:57:14;13.20;99.90
21559;DHT22;10940;48.890;8.240;2023-05-19T06:59:40;13.30;99.90
21559;DHT22;10940;48.890;8.240;2023-05-19T07:02:08;13.30;99.90
21559;DHT22;10940;48.890;8.240;2023-05-19T07:04:34;13.40;99.90
21559;DHT22;10940;48.890;8.240;2023-05-19T07:07:00;13.50;99.90
21559;DHT22;10940;48.890;8.240;2023-05-19T07:09:26;13.60;99.90
21559;DHT22;10940;48.890;8.240;2023-05-19T07:11:51;13.70;99.90
21559;DHT22;10940;48.890;8.240;2023-05-19T07:14:17;13.70;99.90
21559;DHT22;10940;48.890;8.240;2023-05-19T07:16:42;13.70;99.90
21559;DHT22;10940;48.890;8.240;2023-05-19T07:19:08;13.80;99.90
21559;DHT22;10940;48.890;8.240;2023-05-19T07:21:34;13.90;99.90
21559;DHT22;10940;48.890;8.240;2023-05-19T07:23:59;13.90;99.90
21559;DHT22;10940;48.890;8.240;2023-05-19T07:26:25;14.00;99.90
21559;DHT22;10940;48.890;8.240;2023-05-19T07:28:51;14.10;99.90
21559;DHT22;10940;48.890;8.240;2023-05-19T07:31:17;14.10;99.90
21559;DHT22;10940;48.890;8.240;2023-05-19T07:33:42;14.20;99.90
21559;DHT22;10940;48.890;8.240;2023-05-19T07:36:08;14.20;99.90
21559;DHT22;10940;48.890;8.240;2023-05-19T07:38:34;14.40;99.90
21559;DHT22;10940;48.890;8.240;2023-05-19T07:41:00;14.50;99.90
21559;DHT22;10940;48.890;8.240;2023-05-19T07:43:26;14.60;99.90
21559;DHT22;10940;48.890;8.240;2023-05-19T07:45:51;14.60;99.90
21559;DHT22;10940;48.890;8.240;2023-05-19T07:48:18;14.70;99.90
21559;DHT22;10940;48.890;8.240;2023-05-19T07:50:50;14.80;99.90
21559;DHT22;10940;48.890;8.240;2023-05-19T07:53:15;14.90;99.90
21559;DHT22;10940;48.890;8.240;2023-05-19T07:55:41;15.10;99.90
21559;DHT22;10940;48.890;8.240;2023-05-19T07:58:07;15.10;99.90
21559;DHT22;10940;48.890;8.240;2023-05-19T08:00:32;15.30;99.90
21559;DHT22;10940;48.890;8.240;2023-05-19T08:02:59;15.30;99.90
21559;DHT22;10940;48.890;8.240;2023-05-19T08:05:24;15.40;99.90
21559;DHT22;10940;48.890;8.240;2023-05-19T08:07:50;15.40;99.90
21559;DHT22;10940;48.890;8.240;2023-05-19T08:10:16;15.50;99.90
21559;DHT22;10940;48.890;8.240;2023-05-19T08:12:41;15.60;99.90
21559;DHT22;10940;48.890;8.240;2023-05-19T08:15:08;15.70;99.90
21559;DHT22;10940;48.890;8.240;2023-05-19T08:17:36;15.70;99.90
21559;DHT22;10940;48.890;8.240;2023-05-19T08:20:02;15.70;99.90
21559;DHT22;10940;48.890;8.240;2023-05-19T08:22:29;15.80;99.90
21559;DHT22;10940;48.890;8.240;2023-05-19T08:24:55;15.80;99.90
21559;DHT22;10940;48.890;8.240;2023-05-19T08:27:21;16.00;99.90
21559;DHT22;10940;48.890;8.240;2023-05-19T08:29:47;16.10;99.90
21559;DHT22;10940;48.890;8.240;2023-05-19T08:32:12;16.20;99.90
21559;DHT22;10940;48.890;8.240;2023-05-19T08:34:38;16.40;99.90
21559;DHT22;10940;48.890;8.240;2023-05-19T08:37:04;16.40;99.90
21559;DHT22;10940;48.890;8.240;2023-05-19T08:39:30;16.60;99.90
21559;DHT22;10940;48.890;8.240;2023-05-19T08:41:58;16.70;99.90
21559;DHT22;10940;48.890;8.240;2023-05-19T08:44:24;16.80;99.90
21559;DHT22;10940;48.890;8.240;2023-05-19T08:46:50;16.90;99.90
21559;DHT22;10940;48.890;8.240;2023-05-19T08:49:22;16.90;99.90
21559;DHT22;10940;48.890;8.240;2023-05-19T08:54:52;17.00;99.90
21559;DHT22;10940;48.890;8.240;2023-05-19T08:57:22;17.00;99.90
21559;DHT22;10940;48.890;8.240;2023-05-19T08:59:49;17.00;99.90
21559;DHT22;10940;48.890;8.240;2023-05-19T09:02:17;17.10;99.90
21559;DHT22;10940;48.890;8.240;2023-05-19T09:04:44;17.10;99.90
21559;DHT22;10940;48.890;8.240;2023-05-19T09:07:15;17.10;99.90
21559;DHT22;10940;48.890;8.240;2023-05-19T09:09:41;17.20;99.90
21559;DHT22;10940;48.890;8.240;2023-05-19T09:12:12;17.10;99.90
21559;DHT22;10940;48.890;8.240;2023-05-19T09:14:38;17.20;99.90
21559;DHT22;10940;48.890;8.240;2023-05-19T09:17:04;17.20;99.90
21559;DHT22;10940;48.890;8.240;2023-05-19T09:19:30;17.20;99.90
21559;DHT22;10940;48.890;8.240;2023-05-19T09:22:02;17.20;99.90
21559;DHT22;10940;48.890;8.240;2023-05-19T09:24:28;17.20;99.90
21559;DHT22;10940;48.890;8.240;2023-05-19T09:26:57;17.20;99.90
21559;DHT22;10940;48.890;8.240;2023-05-19T09:29:23;17.20;99.90
21559;DHT22;10940;48.890;8.240;2023-05-19T09:31:53;17.30;99.90
21559;DHT22;10940;48.890;8.240;2023-05-19T09:34:20;17.50;99.90
21559;DHT22;10940;48.890;8.240;2023-05-19T09:36:49;17.40;99.90
21559;DHT22;10940;48.890;8.240;2023-05-19T09:39:22;17.50;99.90
21559;DHT22;10940;48.890;8.240;2023-05-19T09:41:52;17.60;99.90
21559;DHT22;10940;48.890;8.240;2023-05-19T09:44:25;17.60;99.90
21559;DHT22;10940;48.890;8.240;2023-05-19T09:46:55;17.60;99.90
21559;DHT22;10940;48.890;8.240;2023-05-19T09:49:26;17.60;99.90
21559;DHT22;10940;48.890;8.240;2023-05-19T09:51:54;17.60;99.90
21559;DHT22;10940;48.890;8.240;2023-05-19T09:54:21;17.50;99.90
21559;DHT22;10940;48.890;8.240;2023-05-19T09:57:06;17.50;99.90
21559;DHT22;10940;48.890;8.240;2023-05-19T09:59:32;17.50;99.90
21559;DHT22;10940;48.890;8.240;2023-05-19T10:01:58;17.50;99.90
21559;DHT22;10940;48.890;8.240;2023-05-19T10:04:26;17.60;99.90
21559;DHT22;10940;48.890;8.240;2023-05-19T10:06:57;17.60;99.90
21559;DHT22;10940;48.890;8.240;2023-05-19T10:09:29;17.40;99.90
21559;DHT22;10940;48.890;8.240;2023-05-19T10:11:56;17.20;99.90
21559;DHT22;10940;48.890;8.240;2023-05-19T10:14:26;17.20;99.90
21559;DHT22;10940;48.890;8.240;2023-05-19T10:16:53;17.30;99.90
21559;DHT22;10940;48.890;8.240;2023-05-19T10:19:21;17.30;99.90
21559;DHT22;10940;48.890;8.240;2023-05-19T10:21:48;17.50;99.90
21559;DHT22;10940;48.890;8.240;2023-05-19T10:24:14;17.50;99.90
21559;DHT22;10940;48.890;8.240;2023-05-19T10:26:41;17.60;99.90
21559;DHT22;10940;48.890;8.240;2023-05-19T10:29:09;17.70;99.90
21559;DHT22;10940;48.890;8.240;2023-05-19T10:31:35;17.90;99.90
21559;DHT22;10940;48.890;8.240;2023-05-19T10:37:25;18.00;99.90
21559;DHT22;10940;48.890;8.240;2023-05-19T10:39:53;17.70;99.90
21559;DHT22;10940;48.890;8.240;2023-05-19T10:42:45;17.50;99.90
21559;DHT22;10940;48.890;8.240;2023-05-19T10:45:21;17.60;99.90
21559;DHT22;10940;48.890;8.240;2023-05-19T10:47:51;17.60;99.90
21559;DHT22;10940;48.890;8.240;2023-05-19T10:50:19;17.80;99.90
21559;DHT22;10940;48.890;8.240;2023-05-19T10:52:54;17.80;99.90
21559;DHT22;10940;48.890;8.240;2023-05-19T10:55:54;17.80;99.90
21559;DHT22;10940;48.890;8.240;2023-05-19T11:01:16;17.60;99.90
21559;DHT22;10940;48.890;8.240;2023-05-19T11:03:50;17.40;99.90
21559;DHT22;10940;48.890;8.240;2023-05-19T11:06:27;17.20;99.90
21559;DHT22;10940;48.890;8.240;2023-05-19T11:08:58;17.00;99.90
21559;DHT22;10940;48.890;8.240;2023-05-19T11:11:49;16.90;99.90
21559;DHT22;10940;48.890;8.240;2023-05-19T11:14:20;17.10;99.90
21559;DHT22;10940;48.890;8.240;2023-05-19T11:16:51;17.20;99.90
21559;DHT22;10940;48.890;8.240;2023-05-19T11:19:27;17.30;99.90
21559;DHT22;10940;48.890;8.240;2023-05-19T11:21:53;17.30;99.90
21559;DHT22;10940;48.890;8.240;2023-05-19T11:24:45;17.40;99.90
21559;DHT22;10940;48.890;8.240;2023-05-19T11:27:27;17.40;99.90
21559;DHT22;10940;48.890;8.240;2023-05-19T11:29:59;17.30;99.90
21559;DHT22;10940;48.890;8.240;2023-05-19T11:32:27;17.20;99.90
21559;DHT22;10940;48.890;8.240;2023-05-19T11:34:54;17.20;99.90
21559;DHT22;10940;48.890;8.240;2023-05-19T11:37:20;17.10;99.90
21559;DHT22;10940;48.890;8.240;2023-05-19T11:39:45;17.10;99.90
21559;DHT22;10940;48.890;8.240;2023-05-19T11:42:11;17.00;99.90
21559;DHT22;10940;48.890;8.240;2023-05-19T11:44:38;17.10;99.90
21559;DHT22;10940;48.890;8.240;2023-05-19T11:47:06;17.00;99.90
21559;DHT22;10940;48.890;8.240;2023-05-19T11:49:31;17.10;99.90
21559;DHT22;10940;48.890;8.240;2023-05-19T11:51:59;17.10;99.90
21559;DHT22;10940;48.890;8.240;2023-05-19T11:54:31;17.20;99.90
21559;DHT22;10940;48.890;8.240;2023-05-19T11:57:01;17.30;99.90
21559;DHT22;10940;48.890;8.240;2023-05-19T11:59:34;17.40;99.90
21559;DHT22;10940;48.890;8.240;2023-05-19T12:02:01;17.50;99.90
21559;DHT22;10940;48.890;8.240;2023-05-19T12:04:31;17.40;99.90
21559;DHT22;10940;48.890;8.240;2023-05-19T12:06:56;17.30;99.90
21559;DHT22;10940;48.890;8.240;2023-05-19T12:09:22;17.20;99.90
21559;DHT22;10940;48.890;8.240;2023-05-19T12:11:50;17.10;99.90
21559;DHT22;10940;48.890;8.240;2023-05-19T12:14:16;17.00;99.90
21559;DHT22;10940;48.890;8.240;2023-05-19T12:16:42;16.90;99.90
21559;DHT22;10940;48.890;8.240;2023-05-19T12:19:07;16.80;99.90
21559;DHT22;10940;48.890;8.240;2023-05-19T12:21:34;16.80;99.90
21559;DHT22;10940;48.890;8.240;2023-05-19T12:24:00;16.80;99.90
21559;DHT22;10940;48.890;8.240;2023-05-19T12:26:26;16.70;99.90
21559;DHT22;10940;48.890;8.240;2023-05-19T12:28:52;16.70;99.90
21559;DHT22;10940;48.890;8.240;2023-05-19T12:31:19;16.70;99.90
21559;DHT22;10940;48.890;8.240;2023-05-19T12:33:50;16.70;99.90
21559;DHT22;10940;48.890;8.240;2023-05-19T12:36:19;16.70;99.90
21559;DHT22;10940;48.890;8.240;2023-05-19T12:38:54;16.60;99.90
21559;DHT22;10940;48.890;8.240;2023-05-19T12:41:20;16.60;99.90
21559;DHT22;10940;48.890;8.240;2023-05-19T12:43:45;16.50;99.90
21559;DHT22;10940;48.890;8.240;2023-05-19T12:46:12;16.60;99.90
21559;DHT22;10940;48.890;8.240;2023-05-19T12:48:47;16.50;99.90
21559;DHT22;10940;48.890;8.240;2023-05-19T12:51:17;16.50;99.90
21559;DHT22;10940;48.890;8.240;2023-05-19T12:53:43;16.50;99.90
21559;DHT22;10940;48.890;8.240;2023-05-19T12:56:10;16.60;99.90
21559;DHT22;10940;48.890;8.240;2023-05-19T12:58:37;16.70;99.90
21559;DHT22;10940;48.890;8.240;2023-05-19T13:01:04;16.70;99.90
21559;DHT22;10940;48.890;8.240;2023-05-19T13:03:30;16.80;99.90
21559;DHT22;10940;48.890;8.240;2023-05-19T13:05:55;16.80;99.90
21559;DHT22;10940;48.890;8.240;2023-05-19T13:08:24;16.80;99.90
21559;DHT22;10940;48.890;8.240;2023-05-19T13:10:49;16.80;99.90
21559;DHT22;10940;48.890;8.240;2023-05-19T13:13:15;16.80;99.90
21559;DHT22;10940;48.890;8.240;2023-05-19T13:15:43;16.70;99.90
21559;DHT22;10940;48.890;8.240;2023-05-19T13:18:11;16.80;99.90
21559;DHT22;10940;48.890;8.240;2023-05-19T13:20:38;16.80;99.90
21559;DHT22;10940;48.890;8.240;2023-05-19T13:23:04;16.90;99.90
21559;DHT22;10940;48.890;8.240;2023-05-19T13:25:32;17.00;99.90
21559;DHT22;10940;48.890;8.240;2023-05-19T13:27:58;17.10;99.90
21559;DHT22;10940;48.890;8.240;2023-05-19T13:30:26;17.00;99.90
21559;DHT22;10940;48.890;8.240;2023-05-19T13:32:52;16.90;99.90
21559;DHT22;10940;48.890;8.240;2023-05-19T13:35:17;16.90;99.90
21559;DHT22;10940;48.890;8.240;2023-05-19T13:37:43;16.90;99.90
21559;DHT22;10940;48.890;8.240;2023-05-19T13:40:10;16.90;99.90
21559;DHT22;10940;48.890;8.240;2023-05-19T13:42:35;16.90;99.90
21559;DHT22;10940;48.890;8.240;2023-05-19T13:45:02;17.00;99.90
21559;DHT22;10940;48.890;8.240;2023-05-19T13:47:28;17.00;99.90
21559;DHT22;10940;48.890;8.240;2023-05-19T13:49:54;17.20;99.90
21559;DHT22;10940;48.890;8.240;2023-05-19T13:52:20;17.10;99.90
21559;DHT22;10940;48.890;8.240;2023-05-19T13:54:46;17.00;99.90
21559;DHT22;10940;48.890;8.240;2023-05-19T13:57:13;17.00;99.90
21559;DHT22;10940;48.890;8.240;2023-05-19T13:59:39;17.00;99.90
21559;DHT22;10940;48.890;8.240;2023-05-19T14:02:06;17.00;99.90
21559;DHT22;10940;48.890;8.240;2023-05-19T14:04:31;17.00;99.90
21559;DHT22;10940;48.890;8.240;2023-05-19T14:06:57;17.10;99.90
21559;DHT22;10940;48.890;8.240;2023-05-19T14:09:23;17.20;99.90
21559;DHT22;10940;48.890;8.240;2023-05-19T14:11:49;17.10;99.90
21559;DHT22;10940;48.890;8.240;2023-05-19T14:14:14;17.20;99.90
21559;DHT22;10940;48.890;8.240;2023-05-19T14:16:40;17.20;99.90
21559;DHT22;10940;48.890;8.240;2023-05-19T14:19:06;17.30;99.90
21559;DHT22;10940;48.890;8.240;2023-05-19T14:21:32;17.40;99.90
21559;DHT22;10940;48.890;8.240;2023-05-19T14:23:58;17.40;99.90
21559;DHT22;10940;48.890;8.240;2023-05-19T14:26:24;17.50;99.90
21559;DHT22;10940;48.890;8.240;2023-05-19T14:28:50;17.40;99.90
21559;DHT22;10940;48.890;8.240;2023-05-19T14:31:16;17.40;99.90
21559;DHT22;10940;48.890;8.240;2023-05-19T14:33:41;17.30;99.90
21559;DHT22;10940;48.890;8.240;2023-05-19T14:36:08;17.20;99.90
21559;DHT22;10940;48.890;8.240;2023-05-19T14:38:34;17.30;99.90
21559;DHT22;10940;48.890;8.240;2023-05-19T14:40:59;17.40;99.90
21559;DHT22;10940;48.890;8.240;2023-05-19T14:43:25;17.50;99.90
21559;DHT22;10940;48.890;8.240;2023-05-19T14:45:51;17.60;99.90
21559;DHT22;10940;48.890;8.240;2023-05-19T14:48:17;17.70;99.90
21559;DHT22;10940;48.890;8.240;2023-05-19T14:50:43;17.70;99.90
21559;DHT22;10940;48.890;8.240;2023-05-19T14:53:09;17.60;99.90
21559;DHT22;10940;48.890;8.240;2023-05-19T14:55:35;17.60;99.90
21559;DHT22;10940;48.890;8.240;2023-05-19T14:58:00;17.50;99.90
21559;DHT22;10940;48.890;8.240;2023-05-19T15:00:26;17.60;99.90
21559;DHT22;10940;48.890;8.240;2023-05-19T15:02:52;17.70;99.90
21559;DHT22;10940;48.890;8.240;2023-05-19T15:05:18;17.80;99.90
21559;DHT22;10940;48.890;8.240;2023-05-19T15:07:43;18.00;99.90
21559;DHT22;10940;48.890;8.240;2023-05-19T15:10:09;18.00;99.90
21559;DHT22;10940;48.890;8.240;2023-05-19T15:12:35;18.10;99.90
21559;DHT22;10940;48.890;8.240;2023-05-19T15:15:00;18.10;99.90
21559;DHT22;10940;48.890;8.240;2023-05-19T15:17:26;18.00;99.90
21559;DHT22;10940;48.890;8.240;2023-05-19T15:19:51;18.00;99.90
21559;DHT22;10940;48.890;8.240;2023-05-19T15:22:17;17.80;99.90
21559;DHT22;10940;48.890;8.240;2023-05-19T15:24:42;17.70;99.90
21559;DHT22;10940;48.890;8.240;2023-05-19T15:27:08;17.60;99.90
21559;DHT22;10940;48.890;8.240;2023-05-19T15:29:34;17.50;99.90
21559;DHT22;10940;48.890;8.240;2023-05-19T15:32:00;17.50;99.90
21559;DHT22;10940;48.890;8.240;2023-05-19T15:34:26;17.50;99.90
21559;DHT22;10940;48.890;8.240;2023-05-19T15:36:51;17.40;99.90
21559;DHT22;10940;48.890;8.240;2023-05-19T15:39:17;17.50;99.90
21559;DHT22;10940;48.890;8.240;2023-05-19T15:41:43;17.50;99.90
21559;DHT22;10940;48.890;8.240;2023-05-19T15:44:09;17.60;99.90
21559;DHT22;10940;48.890;8.240;2023-05-19T15:46:34;17.60;99.90
21559;DHT22;10940;48.890;8.240;2023-05-19T15:49:00;17.70;99.90
21559;DHT22;10940;48.890;8.240;2023-05-19T15:51:26;17.90;99.90
21559;DHT22;10940;48.890;8.240;2023-05-19T15:53:52;18.10;99.90
21559;DHT22;10940;48.890;8.240;2023-05-19T15:56:18;18.10;99.90
21559;DHT22;10940;48.890;8.240;2023-05-19T15:58:46;18.10;99.90